createdAt,value
2023-03-30T00:00:00.818Z,25.20
2023-03-30T00:02:50.854Z,22.63
2023-03-30T00:05:38.652Z,18.93
2023-03-30T00:08:28.335Z,22.07
2023-03-30T00:11:17.317Z,21.10
2023-03-30T00:14:04.777Z,23.23
2023-03-30T00:16:53.490Z,22.77
2023-03-30T00:19:41.142Z,22.47
2023-03-30T00:22:28.963Z,21.77
2023-03-30T00:25:17.618Z,26.37
2023-03-30T00:28:05.096Z,25.13
2023-03-30T00:30:53.621Z,24.53
2023-03-30T00:33:46.341Z,23.00
2023-03-30T00:36:37.248Z,22.47
2023-03-30T00:39:26.629Z,24.33
2023-03-30T00:42:17.493Z,22.10
2023-03-30T00:45:17.834Z,23.73
2023-03-30T00:48:07.433Z,24.47
2023-03-30T00:51:03.376Z,20.43
2023-03-30T00:53:53.387Z,22.87
2023-03-30T00:56:40.959Z,21.10
2023-03-30T00:59:28.385Z,22.20
2023-03-30T01:02:15.951Z,25.97
2023-03-30T01:05:04.913Z,23.70
2023-03-30T01:07:53.348Z,29.60
2023-03-30T01:10:41.114Z,27.10
2023-03-30T01:13:29.510Z,25.27
2023-03-30T01:16:35.455Z,23.83
2023-03-30T01:19:44.570Z,25.00
2023-03-30T01:22:44.332Z,30.13
2023-03-30T01:25:57.332Z,24.43
2023-03-30T01:28:47.746Z,24.40
2023-03-30T01:31:38.291Z,25.97
2023-03-30T01:35:02.439Z,23.67
2023-03-30T01:38:09.057Z,24.90
2023-03-30T01:41:14.935Z,26.33
2023-03-30T01:44:24.019Z,24.70
2023-03-30T01:47:24.529Z,26.80
2023-03-30T01:50:13.837Z,27.37
2023-03-30T01:53:01.273Z,25.73
2023-03-30T01:55:55.524Z,25.50
2023-03-30T01:58:49.586Z,28.07
2023-03-30T02:01:38.191Z,26.77
2023-03-30T02:04:25.691Z,26.57
2023-03-30T02:07:16.167Z,26.00
2023-03-30T02:10:05.511Z,26.00
2023-03-30T02:12:53.382Z,27.43
2023-03-30T02:15:43.304Z,24.10
2023-03-30T02:18:30.713Z,26.43
2023-03-30T02:21:18.184Z,28.73
2023-03-30T02:24:07.057Z,25.17
2023-03-30T02:26:55.059Z,26.57
2023-03-30T02:29:43.642Z,21.20
2023-03-30T02:32:42.921Z,24.67
2023-03-30T02:35:49.029Z,26.77
2023-03-30T02:38:56.131Z,22.87
2023-03-30T02:41:54.826Z,26.20
2023-03-30T02:44:42.359Z,24.50
2023-03-30T02:47:38.709Z,24.97
2023-03-30T02:50:52.437Z,23.33
2023-03-30T02:53:49.325Z,28.10
2023-03-30T02:56:42.990Z,24.17
2023-03-30T02:59:45.654Z,29.73
2023-03-30T03:02:37.600Z,27.47
2023-03-30T03:05:26.361Z,26.07
2023-03-30T03:08:15.531Z,27.57
2023-03-30T03:11:03.135Z,24.43
2023-03-30T03:13:50.992Z,28.37
2023-03-30T03:16:38.690Z,26.13
2023-03-30T03:19:26.490Z,28.47
2023-03-30T03:22:13.858Z,29.60
2023-03-30T03:25:02.509Z,28.97
2023-03-30T03:27:50.062Z,23.67
2023-03-30T03:30:37.960Z,27.03
2023-03-30T03:33:25.742Z,27.60
2023-03-30T03:36:13.349Z,29.40
2023-03-30T03:39:00.796Z,27.57
2023-03-30T03:41:48.182Z,26.53
2023-03-30T03:44:37.570Z,28.90
2023-03-30T03:47:25.218Z,30.70
2023-03-30T03:50:12.709Z,27.43
2023-03-30T03:53:00.296Z,28.97
2023-03-30T03:55:47.850Z,28.33
2023-03-30T03:58:35.827Z,28.23
2023-03-30T04:01:23.213Z,25.83
2023-03-30T04:04:10.926Z,28.27
2023-03-30T04:06:58.374Z,27.33
2023-03-30T04:09:46.242Z,28.83
2023-03-30T04:12:33.925Z,26.67
2023-03-30T04:15:21.311Z,30.27
2023-03-30T04:18:08.891Z,27.70
2023-03-30T04:20:57.075Z,25.90
2023-03-30T04:23:49.275Z,28.63
2023-03-30T04:26:36.694Z,29.00
2023-03-30T04:29:24.356Z,26.17
2023-03-30T04:32:12.894Z,25.73
2023-03-30T04:35:00.379Z,28.07
2023-03-30T04:37:52.302Z,27.63
2023-03-30T04:40:39.774Z,27.97
2023-03-30T04:43:27.182Z,27.73
2023-03-30T04:46:14.623Z,27.40
2023-03-30T04:49:02.145Z,30.23
2023-03-30T04:51:49.622Z,25.50
2023-03-30T04:54:36.990Z,25.33
2023-03-30T04:57:24.533Z,25.67
2023-03-30T05:00:13.590Z,27.90
2023-03-30T05:03:01.104Z,28.87
2023-03-30T05:05:48.546Z,25.50
2023-03-30T05:08:35.892Z,26.47
2023-03-30T05:11:23.478Z,25.87
2023-03-30T05:14:10.917Z,28.10
2023-03-30T05:16:58.878Z,25.17
2023-03-30T05:19:46.669Z,24.93
2023-03-30T05:22:34.041Z,26.23
2023-03-30T05:25:21.848Z,23.00
2023-03-30T05:28:09.246Z,26.57
2023-03-30T05:30:56.844Z,28.17
2023-03-30T05:33:44.325Z,24.80
2023-03-30T05:36:31.931Z,27.73
2023-03-30T05:39:19.370Z,27.57
2023-03-30T05:42:07.292Z,27.33
2023-03-30T05:44:56.665Z,26.30
2023-03-30T05:47:44.131Z,22.47
2023-03-30T05:50:31.543Z,20.43
2023-03-30T05:53:19.005Z,22.87
2023-03-30T05:56:07.224Z,21.63
2023-03-30T05:58:54.636Z,20.97
2023-03-30T06:01:42.027Z,28.20
2023-03-30T06:04:29.467Z,27.97
2023-03-30T06:07:18.074Z,21.83
2023-03-30T06:10:06.054Z,23.47
2023-03-30T06:12:53.537Z,20.03
2023-03-30T06:15:42.245Z,22.47
2023-03-30T06:18:29.702Z,23.07
2023-03-30T06:21:17.095Z,18.33
2023-03-30T06:24:04.590Z,18.67
2023-03-30T06:26:52.271Z,17.93
2023-03-30T06:29:39.753Z,21.77
2023-03-30T06:32:27.255Z,18.97
2023-03-30T06:35:15.710Z,17.80
2023-03-30T06:38:03.466Z,13.37
2023-03-30T06:40:51.432Z,17.80
2023-03-30T06:43:39.460Z,16.07
2023-03-30T06:46:27.212Z,13.30
2023-03-30T06:49:14.725Z,17.40
2023-03-30T06:52:04.483Z,16.20
2023-03-30T06:54:53.670Z,16.70
2023-03-30T06:57:41.378Z,14.27
2023-03-30T07:00:29.628Z,13.63
2023-03-30T07:03:19.034Z,13.57
2023-03-30T07:06:07.735Z,14.87
2023-03-30T07:08:55.386Z,16.23
2023-03-30T07:11:43.260Z,14.80
2023-03-30T07:14:31.170Z,17.10
2023-03-30T07:17:18.596Z,15.50
2023-03-30T07:20:06.447Z,17.77
2023-03-30T07:22:53.963Z,15.63
2023-03-30T07:25:42.060Z,15.40
2023-03-30T07:28:29.540Z,14.93
2023-03-30T07:31:17.328Z,18.83
2023-03-30T07:34:04.808Z,18.40
2023-03-30T07:36:52.521Z,19.03
2023-03-30T07:39:40.397Z,21.23
2023-03-30T07:42:27.931Z,21.63
2023-03-30T07:45:16.702Z,18.03
2023-03-30T07:48:04.319Z,17.07
2023-03-30T07:50:52.434Z,14.70
2023-03-30T07:53:40.006Z,24.50
2023-03-30T07:56:27.406Z,15.93
2023-03-30T07:59:14.834Z,17.13
2023-03-30T08:02:02.448Z,12.73
2023-03-30T08:04:50.140Z,12.50
2023-03-30T08:07:38.164Z,12.20
2023-03-30T08:10:25.832Z,12.43
2023-03-30T08:13:13.382Z,10.03
2023-03-30T08:16:01.784Z,9.60
2023-03-30T08:18:49.246Z,12.63
2023-03-30T08:21:37.230Z,10.83
2023-03-30T08:24:24.643Z,10.43
2023-03-30T08:27:12.153Z,11.23
2023-03-30T08:30:00.283Z,13.80
2023-03-30T08:32:48.351Z,12.00
2023-03-30T08:35:36.012Z,11.50
2023-03-30T08:38:24.673Z,10.83
2023-03-30T08:41:31.701Z,10.53
2023-03-30T08:44:34.395Z,10.17
2023-03-30T08:47:33.622Z,11.47
2023-03-30T08:50:24.324Z,12.00
2023-03-30T08:53:12.343Z,10.43
2023-03-30T08:56:04.892Z,8.10
2023-03-30T08:59:01.948Z,7.67
2023-03-30T09:01:52.991Z,9.30
2023-03-30T09:04:43.577Z,8.57
2023-03-30T09:07:32.504Z,6.70
2023-03-30T09:10:21.882Z,10.40
2023-03-30T09:13:12.918Z,8.07
2023-03-30T09:16:06.027Z,9.23
2023-03-30T09:18:55.807Z,7.20
2023-03-30T09:21:43.823Z,6.13
2023-03-30T09:24:31.902Z,7.40
2023-03-30T09:27:22.560Z,7.63
2023-03-30T09:30:21.418Z,5.57
2023-03-30T09:33:21.781Z,7.77
2023-03-30T09:36:20.249Z,5.97
2023-03-30T09:39:12.099Z,7.90
2023-03-30T09:42:18.079Z,5.93
2023-03-30T09:45:17.906Z,7.30
2023-03-30T09:48:09.442Z,9.47
2023-03-30T09:50:57.170Z,6.67
2023-03-30T09:53:46.583Z,6.67
2023-03-30T09:56:37.482Z,5.67
2023-03-30T09:59:28.622Z,5.90
2023-03-30T10:02:16.544Z,6.50
2023-03-30T10:05:04.554Z,8.83
2023-03-30T10:08:19.478Z,5.63
2023-03-30T10:11:07.968Z,5.50
2023-03-30T10:13:55.555Z,8.50
2023-03-30T10:16:44.460Z,6.90
2023-03-30T10:19:36.952Z,7.43
2023-03-30T10:22:25.812Z,12.43
2023-03-30T10:25:18.589Z,8.23
2023-03-30T10:28:14.128Z,10.87
2023-03-30T10:31:03.368Z,10.33
2023-03-30T10:33:51.041Z,8.37
2023-03-30T10:36:40.351Z,9.80
2023-03-30T10:39:32.805Z,7.93
2023-03-30T10:42:25.699Z,7.50
2023-03-30T10:45:21.288Z,6.77
2023-03-30T10:48:20.999Z,8.63
2023-03-30T10:51:11.857Z,5.77
2023-03-30T10:54:14.901Z,9.33
2023-03-30T10:57:07.632Z,5.27
2023-03-30T10:59:57.357Z,6.77
2023-03-30T11:03:00.575Z,8.47
2023-03-30T11:05:49.940Z,5.80
2023-03-30T11:08:40.431Z,5.67
2023-03-30T11:11:36.756Z,8.63
2023-03-30T11:14:47.278Z,7.33
2023-03-30T11:17:35.922Z,8.67
2023-03-30T11:20:27.499Z,7.50
2023-03-30T11:23:14.868Z,5.53
2023-03-30T11:26:04.220Z,7.93
2023-03-30T11:29:16.087Z,5.57
2023-03-30T11:32:03.606Z,5.03
2023-03-30T11:34:54.118Z,4.97
2023-03-30T11:38:00.470Z,5.70
2023-03-30T11:40:49.931Z,5.73
2023-03-30T11:43:37.337Z,6.07
2023-03-30T11:46:43.474Z,8.55
2023-03-30T11:49:41.738Z,4.53
2023-03-30T11:52:38.067Z,8.23
2023-03-30T11:55:25.505Z,5.20
2023-03-30T11:58:14.760Z,4.63
2023-03-30T12:01:22.406Z,5.67
2023-03-30T12:04:12.902Z,6.23
2023-03-30T12:07:01.718Z,7.03
2023-03-30T12:09:53.467Z,5.07
2023-03-30T12:12:41.924Z,4.67
2023-03-30T12:15:35.323Z,6.23
2023-03-30T12:18:25.707Z,7.57
2023-03-30T12:21:28.162Z,5.23
2023-03-30T12:24:21.506Z,4.83
2023-03-30T12:27:11.705Z,5.23
2023-03-30T12:30:13.962Z,5.20
2023-03-30T12:33:12.241Z,6.60
2023-03-30T12:36:00.896Z,6.17
2023-03-30T12:38:50.158Z,5.03
2023-03-30T12:41:42.486Z,9.67
2023-03-30T12:44:39.855Z,5.37
2023-03-30T12:47:42.169Z,5.60
2023-03-30T12:50:32.394Z,4.83
2023-03-30T12:53:38.304Z,8.37
2023-03-30T12:56:36.812Z,7.00
2023-03-30T12:59:27.038Z,6.47
2023-03-30T13:02:32.681Z,6.37
2023-03-30T13:05:40.383Z,9.80
2023-03-30T13:08:34.103Z,9.33
2023-03-30T13:11:23.062Z,12.00
2023-03-30T13:14:26.522Z,7.07
2023-03-30T13:17:22.140Z,7.67
2023-03-30T13:20:29.194Z,7.73
2023-03-30T13:23:20.731Z,10.30
2023-03-30T13:26:33.943Z,8.63
2023-03-30T13:29:24.505Z,6.07
2023-03-30T13:32:27.019Z,10.30
2023-03-30T13:35:36.037Z,12.97
2023-03-30T13:38:23.458Z,10.33
2023-03-30T13:41:13.609Z,9.03
2023-03-30T13:44:39.772Z,11.20
2023-03-30T13:47:30.350Z,11.67
2023-03-30T13:50:24.927Z,6.63
2023-03-30T13:53:15.647Z,11.90
2023-03-30T13:56:07.092Z,14.17
2023-03-30T13:59:02.120Z,7.43
2023-03-30T14:01:57.278Z,9.53
2023-03-30T14:04:44.769Z,7.73
2023-03-30T14:07:41.925Z,9.60
2023-03-30T14:10:30.817Z,7.17
2023-03-30T14:13:18.666Z,5.40
2023-03-30T14:16:07.178Z,9.67
2023-03-30T14:19:06.949Z,8.17
2023-03-30T14:22:04.940Z,8.23
2023-03-30T14:24:58.484Z,9.20
2023-03-30T14:27:46.586Z,10.50
2023-03-30T14:30:34.752Z,6.57
2023-03-30T14:33:22.552Z,6.23
2023-03-30T14:36:12.572Z,6.70
2023-03-30T14:39:00.192Z,6.63
2023-03-30T14:41:47.673Z,6.70
2023-03-30T14:44:38.461Z,5.33
2023-03-30T14:47:27.432Z,3.30
2023-03-30T14:50:16.071Z,4.37
2023-03-30T14:53:03.574Z,4.37
2023-03-30T14:55:51.566Z,6.03
2023-03-30T14:58:39.146Z,10.80
2023-03-30T15:01:31.265Z,9.47
2023-03-30T15:04:19.386Z,6.90
2023-03-30T15:07:06.905Z,2.57
2023-03-30T15:09:55.064Z,6.30
2023-03-30T15:12:45.177Z,4.83
2023-03-30T15:15:32.918Z,4.90
2023-03-30T15:18:22.849Z,7.47
2023-03-30T15:21:11.046Z,6.27
2023-03-30T15:24:00.219Z,6.77
2023-03-30T15:26:49.207Z,7.17
2023-03-30T15:29:36.637Z,9.57
2023-03-30T15:32:31.614Z,4.37
2023-03-30T15:35:28.034Z,7.23
2023-03-30T15:38:17.050Z,7.87
2023-03-30T15:41:09.584Z,7.80
2023-03-30T15:43:58.571Z,7.57
2023-03-30T15:46:46.502Z,9.77
2023-03-30T15:49:46.861Z,8.63
2023-03-30T15:52:42.463Z,9.80
2023-03-30T15:55:31.239Z,10.83
2023-03-30T15:58:21.292Z,9.73
2023-03-30T16:01:11.139Z,9.83
2023-03-30T16:04:01.886Z,13.63
2023-03-30T16:06:49.578Z,7.17
2023-03-30T16:09:36.925Z,9.07
2023-03-30T16:12:29.021Z,8.03
2023-03-30T16:15:17.887Z,7.83
2023-03-30T16:18:05.363Z,8.07
2023-03-30T16:20:52.783Z,8.77
2023-03-30T16:23:40.280Z,13.17
2023-03-30T16:26:27.667Z,13.20
2023-03-30T16:29:24.792Z,9.17
2023-03-30T16:32:12.337Z,6.13
2023-03-30T16:34:59.741Z,12.73
2023-03-30T16:37:47.206Z,9.03
2023-03-30T16:40:42.976Z,9.97
2023-03-30T16:43:30.709Z,9.30
2023-03-30T16:46:19.981Z,11.43
2023-03-30T16:49:11.757Z,9.70
2023-03-30T16:52:01.084Z,11.27
2023-03-30T16:54:48.458Z,10.10
2023-03-30T16:57:36.086Z,7.20
2023-03-30T17:00:26.256Z,12.87
2023-03-30T17:03:13.942Z,12.50
2023-03-30T17:06:02.097Z,8.70
2023-03-30T17:08:49.772Z,10.87
2023-03-30T17:11:37.133Z,9.07
2023-03-30T17:14:24.518Z,11.50
2023-03-30T17:17:12.564Z,13.83
2023-03-30T17:20:02.081Z,11.27
2023-03-30T17:22:50.147Z,11.50
2023-03-30T17:25:39.880Z,16.43
2023-03-30T17:28:28.601Z,15.43
2023-03-30T17:31:20.281Z,13.23
2023-03-30T17:34:07.791Z,12.10
2023-03-30T17:36:55.334Z,15.90
2023-03-30T17:39:42.822Z,17.17
2023-03-30T17:42:30.357Z,18.77
2023-03-30T17:45:18.924Z,13.77
2023-03-30T17:48:07.545Z,16.07
2023-03-30T17:50:55.334Z,14.50
2023-03-30T17:53:42.864Z,12.53
2023-03-30T17:56:30.576Z,13.63
2023-03-30T17:59:18.537Z,15.17
2023-03-30T18:02:05.950Z,8.77
2023-03-30T18:04:53.501Z,15.97
2023-03-30T18:07:41.592Z,17.20
2023-03-30T18:10:33.478Z,13.47
2023-03-30T18:13:21.527Z,12.73
2023-03-30T18:16:12.636Z,17.30
2023-03-30T18:19:00.193Z,12.20
2023-03-30T18:21:47.554Z,12.63
2023-03-30T18:24:35.004Z,13.20
2023-03-30T18:27:22.386Z,13.10
2023-03-30T18:30:27.001Z,15.10
2023-03-30T18:33:17.898Z,16.73
2023-03-30T18:36:08.058Z,17.93
2023-03-30T18:38:55.848Z,18.67
2023-03-30T18:41:43.366Z,12.20
2023-03-30T18:44:30.879Z,15.40
2023-03-30T18:47:23.420Z,12.80
2023-03-30T18:50:19.500Z,14.43
2023-03-30T18:53:08.761Z,18.63
2023-03-30T18:56:04.675Z,15.37
2023-03-30T18:58:52.560Z,11.90
2023-03-30T19:01:50.793Z,12.63
2023-03-30T19:04:38.912Z,14.03
2023-03-30T19:07:27.631Z,13.37
2023-03-30T19:10:20.053Z,16.80
2023-03-30T19:13:07.582Z,13.10
2023-03-30T19:15:58.426Z,16.07
2023-03-30T19:18:49.472Z,13.60
2023-03-30T19:21:36.884Z,15.53
2023-03-30T19:24:25.415Z,20.93
2023-03-30T19:27:12.964Z,16.17
2023-03-30T19:30:00.484Z,12.83
2023-03-30T19:32:48.939Z,20.70
2023-03-30T19:35:36.425Z,16.00
2023-03-30T19:38:23.905Z,11.70
2023-03-30T19:41:11.374Z,13.40
2023-03-30T19:43:58.761Z,15.63
2023-03-30T19:46:46.218Z,16.37
2023-03-30T19:49:33.749Z,18.13
2023-03-30T19:52:21.764Z,17.40
2023-03-30T19:55:10.262Z,20.00
2023-03-30T19:57:57.656Z,22.23
2023-03-30T20:00:49.401Z,19.20
2023-03-30T20:03:37.011Z,15.97
2023-03-30T20:06:24.450Z,18.00
2023-03-30T20:09:11.912Z,15.77
2023-03-30T20:11:59.308Z,15.83
2023-03-30T20:14:46.956Z,14.13
2023-03-30T20:17:36.183Z,17.77
2023-03-30T20:20:25.346Z,18.00
2023-03-30T20:23:13.274Z,14.03
2023-03-30T20:26:04.176Z,17.73
2023-03-30T20:28:51.548Z,16.07
2023-03-30T20:31:39.004Z,15.93
2023-03-30T20:34:27.488Z,17.63
2023-03-30T20:37:14.870Z,24.93
2023-03-30T20:40:05.072Z,21.20
2023-03-30T20:42:52.474Z,18.03
2023-03-30T20:45:46.384Z,16.97
2023-03-30T20:48:40.091Z,15.13
2023-03-30T20:51:27.775Z,13.13
2023-03-30T20:54:15.669Z,17.90
2023-03-30T20:57:06.415Z,17.17
2023-03-30T20:59:54.160Z,15.40
2023-03-30T21:02:41.733Z,20.27
2023-03-30T21:05:29.207Z,16.23
2023-03-30T21:08:16.676Z,15.53
2023-03-30T21:11:04.702Z,18.90
2023-03-30T21:13:52.250Z,18.33
2023-03-30T21:16:41.898Z,19.83
2023-03-30T21:19:29.416Z,21.37
2023-03-30T21:22:18.774Z,14.93
2023-03-30T21:25:06.478Z,17.13
2023-03-30T21:27:53.891Z,14.47
2023-03-30T21:30:41.414Z,17.83
2023-03-30T21:33:29.507Z,11.60
2023-03-30T21:36:17.343Z,11.47
2023-03-30T21:39:04.809Z,9.10
2023-03-30T21:41:52.273Z,10.80
2023-03-30T21:44:39.669Z,9.77
2023-03-30T21:47:27.054Z,13.50
2023-03-30T21:50:14.487Z,9.73
2023-03-30T21:53:01.835Z,8.93
2023-03-30T21:55:49.250Z,6.53
2023-03-30T21:58:36.645Z,5.47
2023-03-30T22:01:24.449Z,4.77
2023-03-30T22:04:11.979Z,6.03
2023-03-30T22:06:59.502Z,4.80
2023-03-30T22:09:46.935Z,7.50
2023-03-30T22:12:34.422Z,9.07
2023-03-30T22:15:22.028Z,6.70
2023-03-30T22:18:10.751Z,7.23
2023-03-30T22:21:05.080Z,7.90
2023-03-30T22:23:55.882Z,16.03
2023-03-30T22:26:43.327Z,10.17
2023-03-30T22:29:30.718Z,11.40
2023-03-30T22:32:18.831Z,14.63
2023-03-30T22:35:06.814Z,18.87
2023-03-30T22:37:54.316Z,14.67
2023-03-30T22:40:42.020Z,19.40
2023-03-30T22:43:29.497Z,16.87
2023-03-30T22:46:16.931Z,21.60
2023-03-30T22:49:04.446Z,29.50
2023-03-30T22:51:53.137Z,15.00
2023-03-30T22:54:40.832Z,14.83
2023-03-30T22:57:28.467Z,23.87
2023-03-30T23:00:17.780Z,23.20
2023-03-30T23:03:05.407Z,18.73
2023-03-30T23:05:53.285Z,15.40
2023-03-30T23:08:40.686Z,16.83
2023-03-30T23:11:29.002Z,20.07
2023-03-30T23:14:16.416Z,14.43
2023-03-30T23:17:03.979Z,18.63
2023-03-30T23:19:53.927Z,21.57
2023-03-30T23:22:41.814Z,15.63
2023-03-30T23:25:29.189Z,13.87
2023-03-30T23:28:16.970Z,18.00
2023-03-30T23:31:14.402Z,13.90
2023-03-30T23:34:02.005Z,20.10
2023-03-30T23:36:49.708Z,17.07
2023-03-30T23:39:37.103Z,15.20
2023-03-30T23:42:24.543Z,15.00
2023-03-30T23:45:12.182Z,15.60
2023-03-30T23:47:59.654Z,15.47
2023-03-30T23:50:47.083Z,19.30
2023-03-30T23:53:34.504Z,16.30
2023-03-30T23:56:25.838Z,10.97
2023-03-30T23:59:13.776Z,10.90
